Time;durP1;ratioP1;P1;durP2;ratioP2;P2;SDS_P1;SDS_P2;PMS_P1;PMS_P2;Temp;Humidity;BMP_temperature;BMP_pressure;BME280_temperature;BME280_humidity;BME280_pressure;Samples;Min_cycle;Max_cycle;Signal;HPM_P1;HPM_P2
2023/05/21 00:01:48;;;;;;;3.53;2.40;;;;;;;25.11;35.47;101774.31;5014298;28;97824;-71
2023/05/21 00:04:16;;;;;;;3.67;2.20;;;;;;;25.09;35.15;101765.38;5013800;28;96629;-71
2023/05/21 00:06:42;;;;;;;4.28;2.65;;;;;;;25.09;35.40;101770.88;5014226;28;97223;-71
2023/05/21 00:09:11;;;;;;;3.47;2.40;;;;;;;25.10;35.39;101775.34;5013677;28;96993;-71
2023/05/21 00:11:38;;;;;;;3.05;2.30;;;;;;;25.08;35.24;101755.41;5013669;28;97170;-71
2023/05/21 00:14:04;;;;;;;3.35;2.42;;;;;;;25.08;35.17;101754.56;5013906;28;97109;-71
2023/05/21 00:16:31;;;;;;;3.28;2.45;;;;;;;25.09;35.34;101753.53;5013154;28;97079;-71
2023/05/21 00:18:57;;;;;;;3.63;2.40;;;;;;;25.09;35.15;101756.28;5013889;28;97686;-71
2023/05/21 00:21:25;;;;;;;3.30;2.47;;;;;;;25.09;35.24;101750.78;5012556;28;96863;-71
2023/05/21 00:23:53;;;;;;;3.35;2.10;;;;;;;25.09;35.04;101745.28;5012323;28;96884;-71
2023/05/21 00:26:20;;;;;;;3.72;2.63;;;;;;;25.08;35.27;101743.56;5012588;28;96814;-72
2023/05/21 00:28:47;;;;;;;2.88;2.30;;;;;;;25.08;35.22;101741.69;5012708;28;97439;-71
2023/05/21 00:31:14;;;;;;;3.15;2.22;;;;;;;25.07;35.27;101739.97;5013395;28;97361;-71
2023/05/21 00:33:41;;;;;;;2.85;2.25;;;;;;;25.07;35.22;101733.63;5013361;28;97196;-71
2023/05/21 00:36:09;;;;;;;3.38;2.47;;;;;;;25.08;35.27;101738.06;5011805;28;97253;-71
2023/05/21 00:38:36;;;;;;;3.80;2.60;;;;;;;25.08;35.32;101738.06;5013561;28;96812;-71
2023/05/21 00:41:03;;;;;;;3.45;2.35;;;;;;;25.08;35.19;101733.44;5010486;28;96818;-71
2023/05/21 00:43:31;;;;;;;2.80;2.30;;;;;;;25.08;35.36;101736.19;5012032;28;97156;-71
2023/05/21 00:45:58;;;;;;;3.35;2.42;;;;;;;25.08;35.27;101735.31;5012372;28;97208;-71
2023/05/21 00:48:25;;;;;;;3.63;2.33;;;;;;;25.06;35.14;101735.50;5006465;28;100429;-71
2023/05/21 00:50:52;;;;;;;2.88;1.90;;;;;;;25.07;35.29;101723.47;4994684;28;98344;-71
2023/05/21 00:53:18;;;;;;;3.75;2.33;;;;;;;25.06;35.19;101727.25;5010373;28;96718;-71
2023/05/21 00:55:45;;;;;;;3.03;2.05;;;;;;;25.06;35.25;101724.50;5009636;28;96870;-71
2023/05/21 00:58:13;;;;;;;3.25;2.25;;;;;;;25.07;35.13;101722.63;5012766;28;97416;-71
2023/05/21 01:00:39;;;;;;;4.07;2.40;;;;;;;25.05;35.35;101720.06;5011165;28;97716;-71
2023/05/21 01:03:06;;;;;;;3.17;2.15;;;;;;;25.06;35.33;101726.41;5013182;28;96655;-71
2023/05/21 01:05:33;;;;;;;3.97;2.25;;;;;;;25.06;35.41;101715.41;5010830;28;97224;-72
2023/05/21 01:08:00;;;;;;;3.88;2.40;;;;;;;25.06;35.32;101721.75;5011167;28;97936;-71
2023/05/21 01:10:28;;;;;;;2.88;2.20;;;;;;;25.06;35.44;101721.75;5001743;28;98269;-71
2023/05/21 01:12:56;;;;;;;3.00;2.05;;;;;;;25.06;35.33;101719.03;5011635;28;96750;-71
2023/05/21 01:15:24;;;;;;;2.58;1.70;;;;;;;25.06;35.40;101720.91;5008508;28;96960;-71
2023/05/21 01:17:51;;;;;;;3.63;2.17;;;;;;;25.06;35.23;101721.75;5011836;28;97228;-71
2023/05/21 01:20:19;;;;;;;3.10;2.13;;;;;;;25.04;35.30;101715.59;5010372;28;96743;-71
2023/05/21 01:22:55;;;;;;;2.33;2.13;;;;;;;25.05;35.45;101716.44;5011353;28;98883;-71
2023/05/21 01:25:23;;;;;;;3.35;2.22;;;;;;;25.02;35.41;101713.03;5006662;28;96774;-71
2023/05/21 01:27:51;;;;;;;2.90;2.33;;;;;;;25.04;35.42;101712.84;5012055;28;97658;-71
2023/05/21 01:30:19;;;;;;;2.25;1.85;;;;;;;25.03;35.20;101714.75;5009630;28;97222;-71
2023/05/21 01:32:54;;;;;;;3.13;1.73;;;;;;;25.04;35.64;101715.59;5011529;28;99010;-71
2023/05/21 01:35:26;;;;;;;1.88;1.45;;;;;;;25.03;35.46;101709.25;5011198;28;96862;-72
2023/05/21 01:38:16;;;;;;;2.63;1.90;;;;;;;25.03;35.24;101712.00;5011231;28;96974;-71
2023/05/21 01:40:57;;;;;;;3.42;2.20;;;;;;;25.02;35.19;101714.94;4993698;28;96826;-71
2023/05/21 01:43:28;;;;;;;3.13;2.13;;;;;;;25.01;35.48;101704.97;5009615;28;96833;-71
2023/05/21 01:45:56;;;;;;;2.80;2.15;;;;;;;25.01;35.40;101702.22;5002401;28;96974;-71
2023/05/21 01:48:26;;;;;;;2.83;1.92;;;;;;;25.02;35.24;101703.94;5011874;28;97366;-71
2023/05/21 01:50:54;;;;;;;2.67;1.85;;;;;;;25.01;35.50;101700.31;4994024;28;97339;-71
2023/05/21 01:53:21;;;;;;;1.83;1.50;;;;;;;25.01;35.40;101696.72;5010574;28;96828;-71
2023/05/21 01:55:47;;;;;;;3.30;1.90;;;;;;;25.00;35.45;101698.63;4993715;28;97300;-71
2023/05/21 01:58:15;;;;;;;2.58;2.00;;;;;;;25.01;35.52;101699.47;5007765;28;98697;-71
2023/05/21 02:00:44;;;;;;;2.72;1.80;;;;;;;25.01;35.40;101700.31;5008378;28;98305;-71
2023/05/21 02:03:13;;;;;;;3.10;2.08;;;;;;;25.01;35.47;101703.06;5009898;28;97352;-71
2023/05/21 02:05:40;;;;;;;2.17;1.75;;;;;;;25.01;35.34;101702.22;5002410;28;97086;-71
2023/05/21 02:08:07;;;;;;;2.38;1.80;;;;;;;25.01;35.33;101696.72;5007922;28;98406;-71
2023/05/21 02:10:37;;;;;;;2.45;1.80;;;;;;;25.02;35.62;101695.69;5009460;28;96971;-71
2023/05/21 02:13:03;;;;;;;2.15;1.60;;;;;;;25.01;35.45;101699.47;5009395;28;96731;-71
2023/05/21 02:15:33;;;;;;;1.75;1.50;;;;;;;25.00;35.36;101697.75;5011816;28;96837;-71
2023/05/21 02:18:01;;;;;;;2.55;1.70;;;;;;;25.01;35.39;101693.97;5008201;28;100553;-71
2023/05/21 02:20:27;;;;;;;2.53;1.88;;;;;;;25.00;35.29;101698.63;5010300;28;98859;-71
2023/05/21 02:22:54;;;;;;;2.05;1.60;;;;;;;25.00;35.30;101698.63;5010542;28;96758;-71
2023/05/21 02:25:21;;;;;;;2.28;2.05;;;;;;;25.00;35.27;101693.13;5012177;28;97499;-71
2023/05/21 02:27:52;;;;;;;2.78;1.80;;;;;;;25.00;35.35;101698.63;5010166;28;98615;-71
2023/05/21 02:30:19;;;;;;;1.70;1.33;;;;;;;25.00;35.55;101686.78;5010628;28;97375;-71
2023/05/21 02:32:47;;;;;;;2.72;1.77;;;;;;;25.00;35.65;101693.13;5008734;28;96984;-71
2023/05/21 02:35:15;;;;;;;2.17;1.50;;;;;;;24.99;35.36;101691.41;4993357;28;96908;-71
2023/05/21 02:37:42;;;;;;;2.38;1.50;;;;;;;25.00;35.29;101692.25;5009692;28;97707;-71
2023/05/21 02:40:10;;;;;;;2.00;1.50;;;;;;;25.00;35.41;101695.00;5010950;28;97335;-71
2023/05/21 02:42:40;;;;;;;2.33;1.77;;;;;;;24.99;35.71;101687.81;5010362;28;97358;-71
2023/05/21 02:45:10;;;;;;;2.40;1.80;;;;;;;24.99;35.43;101687.81;5004590;28;97023;-72
2023/05/21 02:47:39;;;;;;;2.05;1.60;;;;;;;24.99;35.50;101685.06;5004046;28;97020;-72
2023/05/21 02:50:08;;;;;;;2.53;1.70;;;;;;;24.99;35.45;101688.66;5011523;28;97822;-71
2023/05/21 02:52:41;;;;;;;;;;;;;;;24.95;35.54;101689.19;5010249;28;96711;-71
2023/05/21 02:55:08;;;;;;;2.08;1.50;;;;;;;24.94;35.52;101690.22;5010258;28;97729;-71
2023/05/21 02:57:35;;;;;;;2.22;1.63;;;;;;;24.96;35.53;101679.91;5009188;28;98815;-71
2023/05/21 03:00:04;;;;;;;1.83;1.30;;;;;;;24.96;35.71;101678.00;5009898;28;97472;-71
2023/05/21 03:02:31;;;;;;;2.53;1.40;;;;;;;24.97;35.44;101678.84;5004709;28;96866;-71
2023/05/21 03:04:59;;;;;;;2.15;1.65;;;;;;;24.97;35.46;101676.09;5011081;28;97213;-72
2023/05/21 03:07:26;;;;;;;2.55;1.58;;;;;;;24.97;35.49;101679.75;5008736;28;98376;-71
2023/05/21 03:09:52;;;;;;;2.22;1.42;;;;;;;24.97;35.53;101667.88;5009687;28;97374;-71
2023/05/21 03:12:19;;;;;;;2.03;1.50;;;;;;;24.96;35.69;101666.16;5011029;28;96760;-71
2023/05/21 03:14:48;;;;;;;1.85;1.33;;;;;;;24.97;35.48;101677.00;5011422;28;96934;-71
2023/05/21 03:17:15;;;;;;;2.25;1.63;;;;;;;24.97;35.71;101671.50;5009086;28;99076;-71
2023/05/21 03:19:43;;;;;;;1.60;1.45;;;;;;;24.98;35.44;101669.59;5009953;28;98022;-72
2023/05/21 03:22:13;;;;;;;2.88;1.60;;;;;;;24.96;35.43;101666.16;5007412;28;96890;-71
2023/05/21 03:24:40;;;;;;;2.70;1.63;;;;;;;24.97;35.76;101667.88;4992198;28;97013;-71
2023/05/21 03:27:07;;;;;;;2.75;1.38;;;;;;;24.94;35.27;101660.84;5000480;28;99513;-71
2023/05/21 03:29:35;;;;;;;1.70;1.30;;;;;;;24.97;35.53;101667.88;5008103;28;99661;-71
2023/05/21 03:32:02;;;;;;;1.52;1.20;;;;;;;24.97;35.16;101666.00;5009250;28;97061;-71
2023/05/21 03:34:33;;;;;;;2.75;1.50;;;;;;;24.96;35.60;101655.16;5008192;28;96851;-71
2023/05/21 03:37:00;;;;;;;1.98;1.50;;;;;;;24.97;35.52;101656.88;5008117;28;96872;-71
2023/05/21 03:39:27;;;;;;;1.75;1.45;;;;;;;24.96;35.36;101655.16;5003073;28;98847;-71
2023/05/21 03:41:55;;;;;;;1.88;1.50;;;;;;;24.95;35.55;101653.44;5008167;28;97126;-71
2023/05/21 03:44:31;;;;;;;2.20;1.30;;;;;;;24.94;35.43;101663.59;5008085;28;96881;-71
2023/05/21 03:47:24;;;;;;;2.25;1.48;;;;;;;24.93;35.14;101659.13;4982932;28;98108;-71
2023/05/21 03:49:52;;;;;;;2.00;1.40;;;;;;;24.94;35.55;101663.59;5008148;28;97422;-71
2023/05/21 03:52:19;;;;;;;1.77;1.35;;;;;;;24.95;35.75;101669.94;5009554;28;97881;-71
2023/05/21 03:54:45;;;;;;;2.35;1.42;;;;;;;24.95;35.54;101659.81;5007502;28;97402;-72
2023/05/21 03:57:12;;;;;;;1.70;1.30;;;;;;;24.94;35.63;101663.59;5008593;28;96979;-71
2023/05/21 03:59:39;;;;;;;1.90;1.20;;;;;;;24.94;35.65;101660.84;5009004;28;97144;-71
2023/05/21 04:02:05;;;;;;;1.98;1.33;;;;;;;24.95;35.62;101664.44;5009092;28;96705;-71
2023/05/21 04:04:33;;;;;;;1.63;1.40;;;;;;;24.94;35.71;101663.59;4999072;28;96672;-71
2023/05/21 04:06:59;;;;;;;1.50;1.20;;;;;;;24.94;35.25;101660.84;5013401;28;96740;-71
2023/05/21 04:09:26;;;;;;;1.40;1.13;;;;;;;24.94;35.72;101665.47;5023713;28;99090;-71
2023/05/21 04:11:53;;;;;;;2.00;1.40;;;;;;;24.94;35.55;101673.72;5012003;28;96767;-71
2023/05/21 04:14:20;;;;;;;1.75;1.20;;;;;;;24.93;35.44;101667.38;5014128;28;97162;-71
2023/05/21 04:16:47;;;;;;;1.75;1.20;;;;;;;24.94;35.52;101665.47;5011795;28;96831;-71
2023/05/21 04:19:14;;;;;;;1.63;1.27;;;;;;;24.94;35.48;101668.22;5012245;28;100690;-71
2023/05/21 04:21:43;;;;;;;1.98;1.30;;;;;;;24.93;35.46;101667.38;5013821;28;96765;-71
2023/05/21 04:24:12;;;;;;;1.42;1.20;;;;;;;24.93;35.28;101669.28;5012405;28;96945;-71
2023/05/21 04:26:46;;;;;;;1.77;1.20;;;;;;;24.93;35.52;101669.28;5008899;28;98297;-72
2023/05/21 04:29:19;;;;;;;1.30;1.10;;;;;;;24.92;35.64;101665.66;5012211;28;97239;-71
2023/05/21 04:31:48;;;;;;;1.98;1.52;;;;;;;24.93;35.69;101670.13;5026853;28;97266;-71
2023/05/21 04:34:18;;;;;;;2.20;1.52;;;;;;;24.92;35.61;101675.81;5014277;28;96840;-71
2023/05/21 04:36:45;;;;;;;1.73;1.30;;;;;;;24.92;35.68;101676.66;5013438;28;100351;-71
2023/05/21 04:39:13;;;;;;;1.27;1.10;;;;;;;24.92;35.48;101673.91;5014754;28;99160;-71
2023/05/21 04:41:40;;;;;;;1.40;1.15;;;;;;;24.92;35.73;101681.31;5017222;28;96883;-72
2023/05/21 04:44:07;;;;;;;1.48;1.20;;;;;;;24.92;35.56;101675.81;5027224;28;96737;-71
2023/05/21 04:46:34;;;;;;;1.55;1.23;;;;;;;24.92;35.63;101681.31;5011526;28;97691;-71
2023/05/21 04:49:04;;;;;;;1.15;1.00;;;;;;;24.92;35.49;101684.03;5012858;28;97096;-71
2023/05/21 04:51:31;;;;;;;1.73;1.40;;;;;;;24.92;35.58;101684.03;5013872;28;96778;-71
2023/05/21 04:53:57;;;;;;;1.45;1.25;;;;;;;24.92;35.74;101684.03;5013350;28;97376;-71
2023/05/21 04:56:25;;;;;;;1.60;1.30;;;;;;;24.91;35.76;101679.59;5012667;28;97118;-71
2023/05/21 04:58:53;;;;;;;1.60;1.20;;;;;;;24.91;35.71;101680.44;5011443;28;97668;-71
2023/05/21 05:01:25;;;;;;;1.45;1.15;;;;;;;24.92;35.82;101678.56;5011277;28;97510;-71
2023/05/21 05:03:52;;;;;;;1.58;1.20;;;;;;;24.91;35.85;101685.09;5009860;28;97255;-71
2023/05/21 05:06:20;;;;;;;1.20;1.10;;;;;;;24.92;35.72;101681.31;5012765;28;96712;-71
2023/05/21 05:08:46;;;;;;;1.30;1.10;;;;;;;24.91;35.40;101680.44;5011650;28;96781;-71
2023/05/21 05:11:14;;;;;;;1.70;1.23;;;;;;;24.92;35.63;101681.31;5011726;28;96900;-71
2023/05/21 05:13:41;;;;;;;1.17;1.08;;;;;;;24.91;35.85;101685.09;5013000;28;96805;-71
2023/05/21 05:16:08;;;;;;;1.60;1.30;;;;;;;24.91;35.49;101680.44;5008549;28;98240;-71
2023/05/21 05:18:35;;;;;;;1.45;1.17;;;;;;;24.91;35.81;101674.94;5008905;28;96826;-71
2023/05/21 05:21:06;;;;;;;1.30;1.10;;;;;;;24.91;35.67;101671.34;5010512;28;97215;-72
2023/05/21 05:23:33;;;;;;;1.20;0.90;;;;;;;24.91;35.76;101674.94;5008906;28;97108;-71
2023/05/21 05:26:00;;;;;;;2.08;1.42;;;;;;;24.91;35.73;101663.97;5011757;28;96589;-71
2023/05/21 05:28:26;;;;;;;1.83;1.20;;;;;;;24.91;35.71;101668.59;5008726;28;96887;-71
2023/05/21 05:30:53;;;;;;;1.17;1.00;;;;;;;24.92;35.56;101667.56;5011806;28;97179;-71
2023/05/21 05:33:23;;;;;;;1.35;1.13;;;;;;;24.91;35.62;101663.97;5008094;28;97100;-71
2023/05/21 05:35:49;;;;;;;1.40;1.30;;;;;;;24.91;35.74;101663.97;4993888;28;96822;-71
2023/05/21 05:38:16;;;;;;;1.17;1.08;;;;;;;24.91;35.70;101661.22;4995210;28;96766;-71
2023/05/21 05:40:43;;;;;;;1.88;1.13;;;;;;;24.90;35.69;101662.25;5010605;28;96786;-71
2023/05/21 05:43:10;;;;;;;1.67;1.02;;;;;;;24.91;35.68;101663.09;5011770;28;97117;-72
2023/05/21 05:45:36;;;;;;;1.60;1.00;;;;;;;24.91;35.51;101671.34;5010260;28;100376;-71
2023/05/21 05:48:09;;;;;;;1.60;1.35;;;;;;;24.91;35.70;101671.34;5011497;28;96699;-72
2023/05/21 05:50:36;;;;;;;1.80;1.23;;;;;;;24.91;35.51;101665.84;5013276;28;97237;-72
2023/05/21 05:53:06;;;;;;;1.65;1.17;;;;;;;24.91;35.50;101665.84;5010328;28;96976;-72
2023/05/21 05:55:32;;;;;;;1.08;0.98;;;;;;;24.91;35.63;101666.72;5009902;28;98496;-72
2023/05/21 05:58:00;;;;;;;1.95;1.05;;;;;;;24.91;35.86;101668.59;5010824;28;97743;-71
2023/05/21 06:00:26;;;;;;;1.80;1.30;;;;;;;24.92;35.56;101670.31;5011300;28;96650;-71
2023/05/21 06:02:53;;;;;;;1.40;1.15;;;;;;;24.92;35.47;101667.56;5011260;28;96600;-71
2023/05/21 06:05:20;;;;;;;1.52;1.08;;;;;;;24.92;35.63;101676.66;5006677;28;96870;-72
2023/05/21 06:07:47;;;;;;;1.25;1.10;;;;;;;24.91;35.43;101669.44;5011169;28;96967;-71
2023/05/21 06:10:14;;;;;;;1.67;1.02;;;;;;;24.92;35.90;101675.81;5012244;28;96846;-71
2023/05/21 06:12:40;;;;;;;1.20;1.10;;;;;;;24.93;35.62;101669.28;5010645;28;97424;-71
2023/05/21 06:15:08;;;;;;;1.30;1.00;;;;;;;24.93;35.67;101675.63;4993272;28;97715;-72
2023/05/21 06:17:35;;;;;;;1.45;1.20;;;;;;;24.93;35.72;101669.28;5011153;28;96649;-72
2023/05/21 06:20:02;;;;;;;1.80;1.17;;;;;;;24.93;35.63;101672.03;5011689;28;96815;-71
2023/05/21 06:22:29;;;;;;;1.50;1.00;;;;;;;24.93;35.70;101674.75;5011155;28;98189;-71
2023/05/21 06:24:56;;;;;;;1.92;1.13;;;;;;;24.93;35.86;101666.53;5008981;28;97846;-71
2023/05/21 06:27:23;;;;;;;1.20;1.00;;;;;;;24.93;35.49;101680.25;5010116;28;97414;-71
2023/05/21 06:29:50;;;;;;;1.10;0.88;;;;;;;24.93;35.42;101681.13;5011294;28;96638;-71
2023/05/21 06:32:17;;;;;;;1.00;0.90;;;;;;;24.93;35.51;101678.38;5011881;28;96505;-71
2023/05/21 06:34:43;;;;;;;1.23;1.00;;;;;;;24.93;35.52;101680.25;5010488;28;98904;-71
2023/05/21 06:37:10;;;;;;;1.10;0.90;;;;;;;24.94;35.74;101681.97;5010656;28;98510;-71
2023/05/21 06:39:37;;;;;;;0.82;0.70;;;;;;;24.94;35.60;101681.97;5012676;28;97362;-72
2023/05/21 06:42:04;;;;;;;1.30;0.90;;;;;;;24.94;35.56;101679.22;5010706;28;97846;-72
2023/05/21 06:44:44;;;;;;;1.45;1.00;;;;;;;24.94;35.54;101673.72;5010157;28;97913;-71
2023/05/21 06:47:35;;;;;;;1.65;1.08;;;;;;;24.93;35.73;101669.28;5006431;28;98384;-71
2023/05/21 06:50:02;;;;;;;1.48;0.90;;;;;;;24.94;35.75;101668.22;5010649;28;97217;-72
2023/05/21 06:52:30;;;;;;;1.10;1.00;;;;;;;24.94;35.72;101668.22;5010261;28;96925;-72
2023/05/21 06:54:57;;;;;;;1.30;1.10;;;;;;;24.94;35.69;101669.09;5010006;28;97944;-71
2023/05/21 06:57:26;;;;;;;1.17;0.95;;;;;;;24.94;35.68;101674.59;5008330;28;97722;-71
2023/05/21 06:59:53;;;;;;;1.20;0.93;;;;;;;24.94;35.72;101669.09;5010139;28;97018;-71
2023/05/21 07:02:20;;;;;;;1.10;1.00;;;;;;;24.93;35.82;101661.88;5010855;28;96999;-71
2023/05/21 07:04:46;;;;;;;1.05;0.90;;;;;;;24.94;35.77;101666.34;5009566;28;98544;-71
2023/05/21 07:07:13;;;;;;;1.00;0.90;;;;;;;24.94;35.60;101670.97;5010436;28;97303;-72
2023/05/21 07:09:40;;;;;;;1.30;1.10;;;;;;;24.95;35.69;101669.94;5012254;28;96764;-72
2023/05/21 07:12:07;;;;;;;1.00;0.90;;;;;;;24.95;35.90;101658.94;5010608;28;97270;-71
2023/05/21 07:14:33;;;;;;;1.00;0.88;;;;;;;24.94;35.61;101658.09;5009842;28;98878;-72
2023/05/21 07:17:00;;;;;;;0.95;0.88;;;;;;;24.95;35.57;101658.94;5012050;28;97655;-71
2023/05/21 07:19:27;;;;;;;1.40;1.10;;;;;;;24.95;35.45;101656.19;5009031;28;96842;-72
2023/05/21 07:21:55;;;;;;;0.80;0.80;;;;;;;24.94;35.60;101646.25;5011927;28;96804;-72
2023/05/21 07:24:22;;;;;;;1.00;0.90;;;;;;;24.95;35.55;101653.44;5007642;28;97859;-71
2023/05/21 07:26:49;;;;;;;1.30;1.00;;;;;;;24.95;35.67;101658.94;4992919;28;100833;-71
2023/05/21 07:29:16;;;;;;;1.30;1.10;;;;;;;24.94;35.33;101651.75;5009733;28;97295;-71
2023/05/21 07:31:43;;;;;;;1.48;0.95;;;;;;;24.95;35.39;101651.56;5010162;28;97332;-71
2023/05/21 07:34:09;;;;;;;1.30;1.00;;;;;;;24.95;35.71;101642.47;5009323;28;98784;-72
2023/05/21 07:36:38;;;;;;;1.05;0.90;;;;;;;24.95;35.61;101645.22;5012039;28;97476;-71
2023/05/21 07:39:05;;;;;;;1.17;1.00;;;;;;;24.95;35.57;101647.97;5013813;28;97075;-71
2023/05/21 07:41:32;;;;;;;1.77;1.02;;;;;;;24.95;35.53;101643.31;5013813;28;97111;-72
2023/05/21 07:44:01;;;;;;;1.02;0.93;;;;;;;24.96;35.49;101641.41;5012347;28;97777;-71
2023/05/21 07:46:30;;;;;;;1.25;1.15;;;;;;;24.95;35.69;101648.81;5013179;28;97451;-71
2023/05/21 07:48:57;;;;;;;1.00;0.75;;;;;;;24.96;35.86;101645.03;5012987;28;97148;-71
2023/05/21 07:51:24;;;;;;;2.60;1.10;;;;;;;24.97;35.59;101648.63;5013559;28;97517;-71
2023/05/21 07:53:51;;;;;;;1.10;0.95;;;;;;;24.96;35.59;101647.78;5011932;28;100218;-71
2023/05/21 07:56:27;;;;;;;1.35;1.00;;;;;;;24.96;35.37;101639.53;5012852;28;97503;-71
2023/05/21 07:58:55;;;;;;;0.90;0.80;;;;;;;24.98;35.46;101647.63;4997995;28;97509;-71
2023/05/21 08:01:24;;;;;;;1.20;1.00;;;;;;;24.99;35.66;101652.06;5013246;28;96941;-71
2023/05/21 08:03:51;;;;;;;1.13;0.95;;;;;;;24.98;35.71;101650.38;5012930;28;99813;-71
2023/05/21 08:06:18;;;;;;;1.58;1.00;;;;;;;24.99;35.73;101655.69;5013042;28;98641;-71
2023/05/21 08:08:44;;;;;;;1.10;1.00;;;;;;;24.99;35.57;101647.44;5014986;28;97231;-71
2023/05/21 08:11:11;;;;;;;1.20;1.10;;;;;;;25.00;35.64;101645.53;5013764;28;97269;-71
2023/05/21 08:13:39;;;;;;;1.10;0.90;;;;;;;25.00;35.64;101645.53;5012547;28;96887;-71
2023/05/21 08:16:08;;;;;;;1.15;0.90;;;;;;;25.00;35.67;101640.03;5012561;28;97437;-71
2023/05/21 08:18:35;;;;;;;0.85;0.82;;;;;;;25.01;35.28;101639.00;5012847;28;96826;-71
2023/05/21 08:21:02;;;;;;;1.00;0.90;;;;;;;25.02;35.53;101643.47;5013182;28;96642;-71
2023/05/21 08:23:28;;;;;;;1.30;1.10;;;;;;;25.01;35.77;101637.13;5011454;28;100128;-71
2023/05/21 08:25:58;;;;;;;0.70;0.70;;;;;;;25.02;35.63;101635.22;5012446;28;99108;-71
2023/05/21 08:28:26;;;;;;;3.55;1.38;;;;;;;25.02;35.72;101638.81;4996717;28;96777;-71
2023/05/21 08:30:53;;;;;;;0.90;0.65;;;;;;;25.03;35.66;101636.94;5013352;28;96704;-72
2023/05/21 08:33:22;;;;;;;1.35;1.20;;;;;;;25.02;35.44;101641.56;5012735;28;97365;-71
2023/05/21 08:35:48;;;;;;;1.08;0.90;;;;;;;25.02;35.51;101643.47;5012443;28;97344;-71
2023/05/21 08:38:28;;;;;;;1.30;0.85;;;;;;;25.02;35.16;101636.06;5005863;28;96745;-71
2023/05/21 08:40:57;;;;;;;1.17;0.88;;;;;;;25.03;35.38;101635.03;5014158;28;97297;-71
2023/05/21 08:43:28;;;;;;;1.13;1.00;;;;;;;25.06;35.39;101646.69;5011692;28;98427;-71
2023/05/21 08:45:57;;;;;;;1.33;0.90;;;;;;;25.05;35.63;101639.50;5011735;28;97093;-71
2023/05/21 08:48:30;;;;;;;0.80;0.80;;;;;;;25.05;35.38;101634.84;5003548;28;96732;-72
2023/05/21 08:50:59;;;;;;;1.75;1.58;;;;;;;25.06;35.51;101630.22;5013624;28;96631;-71
2023/05/21 08:53:33;;;;;;;1.00;0.90;;;;;;;25.06;35.63;101625.56;5012285;28;97754;-71
2023/05/21 08:56:00;;;;;;;1.00;0.80;;;;;;;25.06;35.57;101616.47;5009521;28;97205;-72
2023/05/21 08:58:44;;;;;;;1.05;0.95;;;;;;;25.06;35.22;101617.31;5012658;28;97015;-72
2023/05/21 09:01:11;;;;;;;1.05;0.90;;;;;;;25.07;35.53;101620.94;5013294;28;97141;-71
2023/05/21 09:03:42;;;;;;;1.00;0.90;;;;;;;25.06;35.57;101614.56;5012222;28;97744;-71
2023/05/21 09:06:12;;;;;;;1.52;0.90;;;;;;;25.06;35.59;101622.81;5011711;28;99501;-72
2023/05/21 09:08:44;;;;;;;1.23;1.00;;;;;;;25.07;35.68;101608.03;5011974;28;97101;-71
2023/05/21 09:11:23;;;;;;;1.40;1.00;;;;;;;25.07;35.44;101618.19;5012656;28;97001;-72
2023/05/21 09:13:57;;;;;;;1.10;1.00;;;;;;;25.07;35.39;101621.78;5011942;28;99091;-71
2023/05/21 09:16:31;;;;;;;1.10;1.00;;;;;;;25.07;35.59;101615.44;5001267;28;98432;-72
2023/05/21 09:18:59;;;;;;;0.80;0.80;;;;;;;25.07;35.66;101608.03;5012412;28;97004;-72
2023/05/21 09:21:32;;;;;;;1.00;0.90;;;;;;;25.08;35.52;101611.63;5011959;28;96891;-71
2023/05/21 09:24:12;;;;;;;1.10;1.00;;;;;;;25.07;35.45;101608.03;5010606;28;100026;-71
2023/05/21 09:26:43;;;;;;;1.58;1.00;;;;;;;25.09;35.57;101605.09;5009739;28;99182;-71
2023/05/21 09:29:12;;;;;;;1.27;0.90;;;;;;;25.08;35.50;101601.50;5012254;28;96682;-71
2023/05/21 09:31:43;;;;;;;1.10;1.00;;;;;;;25.10;35.53;101602.16;4995038;28;96785;-71
2023/05/21 09:34:12;;;;;;;1.25;1.10;;;;;;;25.09;35.63;101605.09;5007677;28;101032;-71
2023/05/21 09:36:42;;;;;;;0.90;0.80;;;;;;;25.09;35.61;101597.72;5001100;28;96938;-71
2023/05/21 09:39:14;;;;;;;1.23;1.00;;;;;;;25.10;35.51;101604.91;5011838;28;96701;-71
2023/05/21 09:41:42;;;;;;;1.42;1.10;;;;;;;25.10;35.68;101612.31;5011946;28;97083;-71
2023/05/21 09:44:09;;;;;;;0.85;0.73;;;;;;;25.10;35.53;101617.81;5012492;28;96574;-71
2023/05/21 09:46:38;;;;;;;1.30;1.00;;;;;;;25.10;35.38;101612.31;4994609;28;96879;-71
2023/05/21 09:49:06;;;;;;;1.00;0.90;;;;;;;25.10;35.38;101604.06;5011121;28;96914;-71
2023/05/21 09:51:32;;;;;;;0.90;0.90;;;;;;;25.11;35.48;101595.63;5012705;28;97223;-71
2023/05/21 09:53:59;;;;;;;1.10;1.00;;;;;;;25.11;35.66;101598.38;5012311;28;96989;-71
2023/05/21 09:56:29;;;;;;;1.70;1.25;;;;;;;25.12;35.74;101599.22;5012670;28;96626;-71
2023/05/21 09:59:03;;;;;;;0.82;0.80;;;;;;;25.12;35.84;101600.09;5011867;28;96827;-71
2023/05/21 10:01:32;;;;;;;1.08;0.98;;;;;;;25.13;35.67;101603.69;5011277;28;97122;-71
2023/05/21 10:04:07;;;;;;;1.23;1.02;;;;;;;25.13;35.67;101599.03;5012492;28;96928;-70
2023/05/21 10:06:37;;;;;;;1.08;0.98;;;;;;;25.12;35.66;101589.09;5012399;28;97188;-70
2023/05/21 10:09:08;;;;;;;1.10;1.00;;;;;;;25.12;35.50;101588.25;5011920;28;97130;-70
2023/05/21 10:11:36;;;;;;;1.20;1.08;;;;;;;25.12;35.53;101588.25;5011730;28;96685;-70
2023/05/21 10:14:07;;;;;;;1.10;1.00;;;;;;;25.14;35.65;101580.66;5012574;28;98358;-70
2023/05/21 10:16:36;;;;;;;1.10;0.82;;;;;;;25.13;35.65;101582.56;5012451;28;97148;-70
2023/05/21 10:19:04;;;;;;;1.05;0.90;;;;;;;25.13;35.44;101573.47;5004027;28;96760;-70
2023/05/21 10:21:32;;;;;;;1.38;1.27;;;;;;;25.13;35.51;101578.94;5010864;28;97186;-71
2023/05/21 10:24:01;;;;;;;1.02;0.85;;;;;;;25.14;35.57;101581.50;5011821;28;96744;-70
2023/05/21 10:26:29;;;;;;;2.88;1.20;;;;;;;25.13;35.76;101577.06;5012333;28;97448;-71
2023/05/21 10:28:58;;;;;;;1.20;0.95;;;;;;;25.14;35.72;101575.16;5011663;28;97170;-70
2023/05/21 10:31:26;;;;;;;0.85;0.85;;;;;;;25.15;35.71;101574.13;4995125;28;97210;-70
2023/05/21 10:33:56;;;;;;;1.10;0.93;;;;;;;25.15;35.33;101579.63;5011791;28;97599;-70
2023/05/21 10:36:23;;;;;;;1.65;1.10;;;;;;;25.14;35.52;101577.91;5003131;28;96777;-71
2023/05/21 10:38:50;;;;;;;1.20;1.10;;;;;;;25.14;35.76;101578.75;5000689;28;96664;-70
2023/05/21 10:41:18;;;;;;;1.10;1.00;;;;;;;25.16;35.35;101573.09;5012370;28;96994;-71
2023/05/21 10:43:55;;;;;;;1.02;0.90;;;;;;;25.15;35.60;101574.97;5012940;28;96730;-71
2023/05/21 10:46:59;;;;;;;1.00;0.90;;;;;;;25.16;35.41;101562.94;5012077;28;96812;-71
2023/05/21 10:49:38;;;;;;;1.15;1.05;;;;;;;25.15;35.46;101568.63;5006913;28;96793;-71
2023/05/21 10:52:16;;;;;;;1.08;0.98;;;;;;;25.15;35.45;101563.13;5013215;28;96924;-70
2023/05/21 10:55:01;;;;;;;2.13;0.90;;;;;;;25.15;35.36;101563.97;5011819;28;96790;-70
2023/05/21 10:57:47;;;;;;;1.10;1.00;;;;;;;25.15;35.65;101558.47;5006164;28;96939;-70
2023/05/21 11:00:16;;;;;;;1.10;1.00;;;;;;;25.14;35.38;101559.53;5012178;28;96895;-71
2023/05/21 11:02:44;;;;;;;1.05;0.95;;;;;;;25.14;35.83;101551.28;5010967;28;96628;-70
2023/05/21 11:05:11;;;;;;;2.28;1.08;;;;;;;25.15;35.71;101547.50;5010201;28;97675;-71
2023/05/21 11:07:56;;;;;;;1.02;0.90;;;;;;;25.16;35.30;101551.09;5011220;28;97664;-71
2023/05/21 11:10:36;;;;;;;1.08;0.98;;;;;;;25.16;35.70;101538.19;5013623;28;97599;-71
2023/05/21 11:13:13;;;;;;;1.42;1.17;;;;;;;25.15;35.71;101525.50;5015680;28;96621;-70
2023/05/21 11:15:58;;;;;;;1.52;1.20;;;;;;;25.16;35.66;101537.34;4992613;28;97375;-71
2023/05/21 11:18:34;;;;;;;;;;;;;;;25.10;35.59;101530.69;5013232;28;97700;-70
2023/05/21 11:21:07;;;;;;;0.77;0.77;;;;;;;25.11;35.54;101529.66;5014440;28;97119;-70
2023/05/21 11:23:49;;;;;;;1.00;0.90;;;;;;;25.13;35.41;101513.84;4999653;28;97086;-70
2023/05/21 11:26:21;;;;;;;1.10;1.00;;;;;;;25.13;35.70;101529.47;5007664;28;97324;-70
2023/05/21 11:29:02;;;;;;;1.30;1.00;;;;;;;25.16;35.67;101515.34;5014538;28;97410;-70
2023/05/21 11:31:39;;;;;;;1.15;1.00;;;;;;;25.15;35.57;101508.16;5009312;28;96620;-71
2023/05/21 11:34:09;;;;;;;1.35;1.02;;;;;;;25.16;35.52;101507.97;5002709;28;97221;-70